»·PEaware :: WAT2489 KMFR-KOTH

WAT2489 :: KMFR-KOTH

FLIGHT INFORMATION

Flight Status: Arrived
Operator:
Walker Air Transport
More flights by this operator :: More flights under this callsign
Pilot: Graham D. (41507)
Aircraft: Diamond DA-62
(DA62)
More flights by this aircraft type
Origin: KMFR Rogue Valley Intl-Medford
United States
Destination: KOTH North Bend Mun
United States
More flights between these airports :: More routes between these airports
Route: GNATS7 KOLER V287 OTH
File this flight plan on PilotEdge
Remarks:
Altitude:
(Current/Filed)
8,000ft
Speed:
(Current/Filed)
168kts
Departed: 23-Sep-22 07:33 AM
Arrived: 23-Sep-22 08:38 AM
Distance/Time
Traveled:
87nm/1:04
Distance/Time
To Go:
Arrived

Flight Plot

Page will automatically refresh every two minutes.

Flight plan parsing failed; only flown route is shown


Map Options




Map Legend


Flown Route
Filed Route
Departure Airport
Arrival Airport
Navaid (VOR, NDB)
Fix

Horizontal Profiles

Position Reports

Time Latitude Longitude Heading Altitude Ground
Speed
23-Sep-22 07:22 42.371858 -122.878289 24 1316ft 0kts
23-Sep-22 07:23 42.371858 -122.878289 24 1316ft 0kts
23-Sep-22 07:24 42.371858 -122.878289 24 1316ft 0kts
23-Sep-22 07:25 42.371858 -122.878289 24 1316ft 0kts
23-Sep-22 07:26 42.371858 -122.878289 24 1316ft 0kts
23-Sep-22 07:27 42.371858 -122.878289 24 1316ft 0kts
23-Sep-22 07:28 42.373207 -122.877695 87 1315ft 19kts
23-Sep-22 07:29 42.375776 -122.875328 339 1309ft 31kts
23-Sep-22 07:30 42.382566 -122.878874 339 1305ft 19kts
23-Sep-22 07:31 42.384813 -122.878361 159 1302ft 34kts
23-Sep-22 07:32 42.363691 -122.866710 159 1720ft 92kts
23-Sep-22 07:33 42.353075 -122.885561 324 2591ft 99kts
23-Sep-22 07:34 42.379444 -122.888228 338 3522ft 101kts
23-Sep-22 07:35 42.394766 -122.919195 295 4411ft 108kts
23-Sep-22 07:36 42.407535 -122.960332 293 5142ft 124kts
23-Sep-22 07:37 42.420663 -123.005729 292 5817ft 138kts
23-Sep-22 07:38 42.433408 -123.057236 288 6340ft 148kts
23-Sep-22 07:39 42.446163 -123.111885 288 6852ft 152kts
23-Sep-22 07:40 42.459138 -123.167733 288 7362ft 154kts
23-Sep-22 07:41 42.472025 -123.223287 288 7864ft 154kts
23-Sep-22 07:42 42.503259 -123.256390 351 8003ft 159kts
23-Sep-22 07:43 42.547939 -123.263266 354 8000ft 163kts
23-Sep-22 07:44 42.593271 -123.269566 354 8000ft 163kts
23-Sep-22 07:45 42.638519 -123.275861 354 7999ft 164kts
23-Sep-22 07:46 42.684033 -123.282201 354 7999ft 164kts
23-Sep-22 07:47 42.729788 -123.288583 354 7999ft 164kts
23-Sep-22 07:48 42.773234 -123.304465 321 8000ft 164kts
23-Sep-22 07:49 42.807819 -123.347357 317 7999ft 164kts
23-Sep-22 07:50 42.841384 -123.391708 316 8000ft 164kts
23-Sep-22 07:51 42.875037 -123.436582 316 7999ft 164kts
23-Sep-22 07:52 42.908455 -123.481276 316 7999ft 163kts
23-Sep-22 07:53 42.942012 -123.526232 316 7999ft 163kts
23-Sep-22 07:54 42.976032 -123.571885 316 7999ft 163kts
23-Sep-22 07:55 43.011196 -123.619142 316 7998ft 163kts
23-Sep-22 07:56 43.046770 -123.667065 316 7999ft 163kts
23-Sep-22 07:57 43.082754 -123.715592 316 7999ft 162kts
23-Sep-22 07:58 43.118904 -123.764438 316 8000ft 162kts
23-Sep-22 07:59 43.153658 -123.811498 316 7998ft 151kts
23-Sep-22 08:00 43.186746 -123.856362 316 7923ft 151kts
23-Sep-22 08:01 43.220737 -123.902515 316 7263ft 154kts
23-Sep-22 08:02 43.254842 -123.948907 316 6590ft 153kts
23-Sep-22 08:03 43.288448 -123.994708 316 5940ft 151kts
23-Sep-22 08:04 43.321041 -124.039200 317 5380ft 146kts
23-Sep-22 08:05 43.353286 -124.083278 317 4819ft 145kts
23-Sep-22 08:06 43.385334 -124.127158 317 4259ft 145kts
23-Sep-22 08:07 43.411942 -124.173408 276 3864ft 140kts
23-Sep-22 08:08 43.405644 -124.234870 260 3316ft 147kts
23-Sep-22 08:09 43.396301 -124.297798 260 3000ft 150kts
23-Sep-22 08:10 43.377031 -124.353116 242 2636ft 132kts
23-Sep-22 08:11 43.352851 -124.398866 209 2013ft 150kts
23-Sep-22 08:12 43.309243 -124.419158 196 1999ft 146kts
23-Sep-22 08:13 43.268825 -124.441798 248 2001ft 145kts
23-Sep-22 08:14 43.296861 -124.460165 17 2002ft 137kts
23-Sep-22 08:15 43.336743 -124.441499 40 2002ft 137kts
23-Sep-22 08:16 43.359887 -124.394184 60 2000ft 139kts
23-Sep-22 08:17 43.379215 -124.347096 60 1429ft 128kts
23-Sep-22 08:18 43.395873 -124.306569 61 788ft 93kts
23-Sep-22 08:19 43.408787 -124.275080 56 271ft 88kts
23-Sep-22 08:20 43.421126 -124.245344 52 445ft 99kts
23-Sep-22 08:21 43.438410 -124.259167 230 1502ft 102kts
23-Sep-22 08:22 43.415841 -124.284933 220 2607ft 102kts
23-Sep-22 08:23 43.394088 -124.312562 240 3645ft 103kts
23-Sep-22 08:24 43.379392 -124.348234 243 4674ft 103kts
23-Sep-22 08:25 43.384503 -124.380964 9 5009ft 117kts
23-Sep-22 08:26 43.394982 -124.334612 85 4805ft 134kts
23-Sep-22 08:27 43.397257 -124.275581 85 4271ft 142kts
23-Sep-22 08:28 43.421825 -124.274637 264 3684ft 148kts
23-Sep-22 08:29 43.391066 -124.321325 236 3134ft 149kts
23-Sep-22 08:30 43.367424 -124.374937 222 2568ft 150kts
23-Sep-22 08:31 43.333673 -124.406963 279 2040ft 147kts
23-Sep-22 08:32 43.360066 -124.399203 72 2001ft 137kts
23-Sep-22 08:33 43.376857 -124.352762 60 1528ft 109kts
23-Sep-22 08:34 43.391737 -124.316613 61 958ft 93kts
23-Sep-22 08:35 43.404611 -124.285256 61 449ft 89kts
23-Sep-22 08:36 43.416654 -124.255814 61 22ft 82kts
23-Sep-22 08:37 43.417951 -124.247311 234 24ft 6kts

Navigation Log

Ident Type
Flight plan parsing failed, navigation log unavailable